sensor_id;sensor_type;location;lat;lon;timestamp;P1;durP1;ratioP1;P2;durP2;ratioP2
27622;SDS011;15041;45.334;5.622;2024-03-06T00:00:19;1.37;;;1.00;;
27622;SDS011;15041;45.334;5.622;2024-03-06T00:02:46;0.70;;;0.70;;
27622;SDS011;15041;45.334;5.622;2024-03-06T00:05:13;0.97;;;0.97;;
27622;SDS011;15041;45.334;5.622;2024-03-06T00:07:40;0.73;;;0.73;;
27622;SDS011;15041;45.334;5.622;2024-03-06T00:10:09;0.80;;;0.80;;
27622;SDS011;15041;45.334;5.622;2024-03-06T00:12:36;2.77;;;1.97;;
27622;SDS011;15041;45.334;5.622;2024-03-06T00:15:03;2.70;;;1.57;;
27622;SDS011;15041;45.334;5.622;2024-03-06T00:17:30;4.80;;;2.73;;
27622;SDS011;15041;45.334;5.622;2024-03-06T00:19:57;4.50;;;2.00;;
27622;SDS011;15041;45.334;5.622;2024-03-06T00:22:24;3.30;;;1.83;;
27622;SDS011;15041;45.334;5.622;2024-03-06T00:24:51;1.90;;;1.80;;
27622;SDS011;15041;45.334;5.622;2024-03-06T00:27:20;2.53;;;2.30;;
27622;SDS011;15041;45.334;5.622;2024-03-06T00:29:47;2.33;;;2.13;;
27622;SDS011;15041;45.334;5.622;2024-03-06T00:32:14;3.23;;;1.90;;
27622;SDS011;15041;45.334;5.622;2024-03-06T00:34:41;1.97;;;1.43;;
27622;SDS011;15041;45.334;5.622;2024-03-06T00:37:08;1.00;;;1.00;;
27622;SDS011;15041;45.334;5.622;2024-03-06T00:39:35;1.20;;;1.20;;
27622;SDS011;15041;45.334;5.622;2024-03-06T00:42:02;1.00;;;1.00;;
27622;SDS011;15041;45.334;5.622;2024-03-06T00:44:31;1.33;;;1.23;;
27622;SDS011;15041;45.334;5.622;2024-03-06T00:46:58;1.30;;;1.30;;
27622;SDS011;15041;45.334;5.622;2024-03-06T00:49:25;1.60;;;1.40;;
27622;SDS011;15041;45.334;5.622;2024-03-06T00:51:52;2.60;;;1.37;;
27622;SDS011;15041;45.334;5.622;2024-03-06T00:54:19;1.20;;;1.20;;
27622;SDS011;15041;45.334;5.622;2024-03-06T00:56:46;1.57;;;1.47;;
27622;SDS011;15041;45.334;5.622;2024-03-06T00:59:14;1.20;;;1.20;;
27622;SDS011;15041;45.334;5.622;2024-03-06T01:01:42;1.40;;;1.30;;
27622;SDS011;15041;45.334;5.622;2024-03-06T01:04:10;2.73;;;1.20;;
27622;SDS011;15041;45.334;5.622;2024-03-06T01:06:37;1.33;;;1.17;;
27622;SDS011;15041;45.334;5.622;2024-03-06T01:09:04;3.03;;;1.50;;
27622;SDS011;15041;45.334;5.622;2024-03-06T01:11:31;1.70;;;1.60;;
27622;SDS011;15041;45.334;5.622;2024-03-06T01:13:58;1.50;;;1.40;;
27622;SDS011;15041;45.334;5.622;2024-03-06T01:16:25;1.07;;;1.07;;
27622;SDS011;15041;45.334;5.622;2024-03-06T01:18:53;3.07;;;1.67;;
27622;SDS011;15041;45.334;5.622;2024-03-06T01:21:21;1.40;;;1.30;;
27622;SDS011;15041;45.334;5.622;2024-03-06T01:23:48;3.57;;;1.33;;
27622;SDS011;15041;45.334;5.622;2024-03-06T01:26:15;0.93;;;0.93;;
27622;SDS011;15041;45.334;5.622;2024-03-06T01:28:42;1.10;;;1.00;;
27622;SDS011;15041;45.334;5.622;2024-03-06T01:31:09;1.30;;;1.23;;
27622;SDS011;15041;45.334;5.622;2024-03-06T01:33:36;2.23;;;1.37;;
27622;SDS011;15041;45.334;5.622;2024-03-06T01:36:06;1.90;;;1.47;;
27622;SDS011;15041;45.334;5.622;2024-03-06T01:38:38;1.90;;;1.20;;
27622;SDS011;15041;45.334;5.622;2024-03-06T01:41:05;1.07;;;1.07;;
27622;SDS011;15041;45.334;5.622;2024-03-06T01:43:36;1.00;;;1.00;;
27622;SDS011;15041;45.334;5.622;2024-03-06T01:46:04;1.10;;;1.10;;
27622;SDS011;15041;45.334;5.622;2024-03-06T01:48:32;1.10;;;1.00;;
27622;SDS011;15041;45.334;5.622;2024-03-06T01:51:01;1.17;;;1.13;;
27622;SDS011;15041;45.334;5.622;2024-03-06T01:53:32;1.33;;;1.23;;
27622;SDS011;15041;45.334;5.622;2024-03-06T01:56:00;1.07;;;1.07;;
27622;SDS011;15041;45.334;5.622;2024-03-06T01:58:29;1.10;;;1.10;;
27622;SDS011;15041;45.334;5.622;2024-03-06T02:00:57;1.23;;;1.07;;
27622;SDS011;15041;45.334;5.622;2024-03-06T02:03:24;1.00;;;0.90;;
27622;SDS011;15041;45.334;5.622;2024-03-06T02:05:52;1.13;;;1.10;;
27622;SDS011;15041;45.334;5.622;2024-03-06T02:08:20;2.20;;;2.00;;
27622;SDS011;15041;45.334;5.622;2024-03-06T02:10:48;1.67;;;1.57;;
27622;SDS011;15041;45.334;5.622;2024-03-06T02:13:15;1.70;;;1.60;;
27622;SDS011;15041;45.334;5.622;2024-03-06T02:15:44;1.00;;;1.00;;
27622;SDS011;15041;45.334;5.622;2024-03-06T02:18:11;0.97;;;0.97;;
27622;SDS011;15041;45.334;5.622;2024-03-06T02:20:40;1.40;;;1.30;;
27622;SDS011;15041;45.334;5.622;2024-03-06T02:23:10;2.13;;;1.30;;
27622;SDS011;15041;45.334;5.622;2024-03-06T02:25:37;1.50;;;1.40;;
27622;SDS011;15041;45.334;5.622;2024-03-06T02:28:04;1.20;;;1.10;;
27622;SDS011;15041;45.334;5.622;2024-03-06T02:30:32;0.70;;;0.70;;
27622;SDS011;15041;45.334;5.622;2024-03-06T02:33:02;0.90;;;0.90;;
27622;SDS011;15041;45.334;5.622;2024-03-06T02:35:31;0.90;;;0.90;;
27622;SDS011;15041;45.334;5.622;2024-03-06T02:38:00;0.80;;;0.80;;
27622;SDS011;15041;45.334;5.622;2024-03-06T02:40:29;1.30;;;1.30;;
27622;SDS011;15041;45.334;5.622;2024-03-06T02:42:56;1.87;;;0.73;;
27622;SDS011;15041;45.334;5.622;2024-03-06T02:45:24;1.17;;;1.00;;
27622;SDS011;15041;45.334;5.622;2024-03-06T02:47:51;0.70;;;0.70;;
27622;SDS011;15041;45.334;5.622;2024-03-06T02:50:18;1.33;;;0.90;;
27622;SDS011;15041;45.334;5.622;2024-03-06T02:52:46;1.07;;;1.07;;
27622;SDS011;15041;45.334;5.622;2024-03-06T02:55:14;0.77;;;0.77;;
27622;SDS011;15041;45.334;5.622;2024-03-06T02:57:41;1.43;;;1.10;;
27622;SDS011;15041;45.334;5.622;2024-03-06T03:00:09;0.60;;;0.60;;
27622;SDS011;15041;45.334;5.622;2024-03-06T03:02:38;1.00;;;1.00;;
27622;SDS011;15041;45.334;5.622;2024-03-06T03:05:05;1.60;;;1.50;;
27622;SDS011;15041;45.334;5.622;2024-03-06T03:07:33;0.90;;;0.90;;
27622;SDS011;15041;45.334;5.622;2024-03-06T03:10:00;1.00;;;1.00;;
27622;SDS011;15041;45.334;5.622;2024-03-06T03:12:29;1.57;;;1.20;;
27622;SDS011;15041;45.334;5.622;2024-03-06T03:14:56;0.90;;;0.90;;
27622;SDS011;15041;45.334;5.622;2024-03-06T03:17:23;1.07;;;1.07;;
27622;SDS011;15041;45.334;5.622;2024-03-06T03:19:51;1.27;;;1.20;;
27622;SDS011;15041;45.334;5.622;2024-03-06T03:22:18;1.83;;;1.43;;
27622;SDS011;15041;45.334;5.622;2024-03-06T03:24:45;1.50;;;1.40;;
27622;SDS011;15041;45.334;5.622;2024-03-06T03:27:12;1.27;;;1.17;;
27622;SDS011;15041;45.334;5.622;2024-03-06T03:29:41;1.20;;;1.20;;
27622;SDS011;15041;45.334;5.622;2024-03-06T03:32:08;1.33;;;1.23;;
27622;SDS011;15041;45.334;5.622;2024-03-06T03:34:36;1.50;;;1.30;;
27622;SDS011;15041;45.334;5.622;2024-03-06T03:37:04;1.53;;;1.43;;
27622;SDS011;15041;45.334;5.622;2024-03-06T03:39:31;2.17;;;1.50;;
27622;SDS011;15041;45.334;5.622;2024-03-06T03:41:58;2.27;;;1.50;;
27622;SDS011;15041;45.334;5.622;2024-03-06T03:44:25;1.50;;;1.40;;
27622;SDS011;15041;45.334;5.622;2024-03-06T03:46:53;1.30;;;1.20;;
27622;SDS011;15041;45.334;5.622;2024-03-06T03:49:20;1.60;;;1.30;;
27622;SDS011;15041;45.334;5.622;2024-03-06T03:51:48;1.67;;;1.30;;
27622;SDS011;15041;45.334;5.622;2024-03-06T03:54:15;1.60;;;1.50;;
27622;SDS011;15041;45.334;5.622;2024-03-06T03:56:42;4.10;;;2.20;;
27622;SDS011;15041;45.334;5.622;2024-03-06T03:59:09;4.87;;;2.90;;
27622;SDS011;15041;45.334;5.622;2024-03-06T04:01:36;4.23;;;2.80;;
27622;SDS011;15041;45.334;5.622;2024-03-06T04:04:05;2.93;;;2.40;;
27622;SDS011;15041;45.334;5.622;2024-03-06T04:06:33;3.77;;;2.30;;
27622;SDS011;15041;45.334;5.622;2024-03-06T04:09:00;2.27;;;2.03;;
27622;SDS011;15041;45.334;5.622;2024-03-06T04:11:27;5.83;;;2.57;;
27622;SDS011;15041;45.334;5.622;2024-03-06T04:13:55;2.27;;;2.00;;
27622;SDS011;15041;45.334;5.622;2024-03-06T04:16:22;2.83;;;2.50;;
27622;SDS011;15041;45.334;5.622;2024-03-06T04:18:49;2.20;;;1.80;;
27622;SDS011;15041;45.334;5.622;2024-03-06T04:21:17;2.30;;;2.10;;
27622;SDS011;15041;45.334;5.622;2024-03-06T04:23:44;1.80;;;1.70;;
27622;SDS011;15041;45.334;5.622;2024-03-06T04:26:11;2.07;;;1.70;;
27622;SDS011;15041;45.334;5.622;2024-03-06T04:28:39;2.37;;;1.50;;
27622;SDS011;15041;45.334;5.622;2024-03-06T04:31:06;1.70;;;1.60;;
27622;SDS011;15041;45.334;5.622;2024-03-06T04:33:34;2.10;;;1.60;;
27622;SDS011;15041;45.334;5.622;2024-03-06T04:36:01;1.50;;;1.40;;
27622;SDS011;15041;45.334;5.622;2024-03-06T04:38:32;1.87;;;1.73;;
27622;SDS011;15041;45.334;5.622;2024-03-06T04:40:59;1.70;;;1.60;;
27622;SDS011;15041;45.334;5.622;2024-03-06T04:43:26;1.60;;;1.50;;
27622;SDS011;15041;45.334;5.622;2024-03-06T04:45:53;1.53;;;1.43;;
27622;SDS011;15041;45.334;5.622;2024-03-06T04:48:20;2.50;;;1.50;;
27622;SDS011;15041;45.334;5.622;2024-03-06T04:50:47;1.70;;;1.60;;
27622;SDS011;15041;45.334;5.622;2024-03-06T04:53:14;1.73;;;1.63;;
27622;SDS011;15041;45.334;5.622;2024-03-06T04:55:43;2.30;;;2.10;;
27622;SDS011;15041;45.334;5.622;2024-03-06T04:58:10;1.90;;;1.80;;
27622;SDS011;15041;45.334;5.622;2024-03-06T05:00:37;2.17;;;1.70;;
27622;SDS011;15041;45.334;5.622;2024-03-06T05:03:04;1.97;;;1.80;;
27622;SDS011;15041;45.334;5.622;2024-03-06T05:05:31;2.07;;;1.97;;
27622;SDS011;15041;45.334;5.622;2024-03-06T05:07:59;1.67;;;1.57;;
27622;SDS011;15041;45.334;5.622;2024-03-06T05:10:26;2.10;;;1.83;;
27622;SDS011;15041;45.334;5.622;2024-03-06T05:12:54;2.33;;;1.53;;
27622;SDS011;15041;45.334;5.622;2024-03-06T05:15:21;2.10;;;2.00;;
27622;SDS011;15041;45.334;5.622;2024-03-06T05:17:49;3.43;;;1.67;;
27622;SDS011;15041;45.334;5.622;2024-03-06T05:20:16;1.80;;;1.70;;
27622;SDS011;15041;45.334;5.622;2024-03-06T05:22:43;2.27;;;1.70;;
27622;SDS011;15041;45.334;5.622;2024-03-06T05:25:10;1.67;;;1.57;;
27622;SDS011;15041;45.334;5.622;2024-03-06T05:27:37;1.60;;;1.50;;
27622;SDS011;15041;45.334;5.622;2024-03-06T05:30:06;2.07;;;1.90;;
27622;SDS011;15041;45.334;5.622;2024-03-06T05:32:34;2.23;;;1.50;;
27622;SDS011;15041;45.334;5.622;2024-03-06T05:35:01;2.33;;;1.83;;
27622;SDS011;15041;45.334;5.622;2024-03-06T05:37:29;1.73;;;1.63;;
27622;SDS011;15041;45.334;5.622;2024-03-06T05:39:56;2.00;;;1.83;;
27622;SDS011;15041;45.334;5.622;2024-03-06T05:42:23;2.80;;;1.90;;
27622;SDS011;15041;45.334;5.622;2024-03-06T05:44:50;1.57;;;1.50;;
27622;SDS011;15041;45.334;5.622;2024-03-06T05:47:21;2.73;;;1.90;;
27622;SDS011;15041;45.334;5.622;2024-03-06T05:49:48;3.83;;;3.20;;
27622;SDS011;15041;45.334;5.622;2024-03-06T05:52:15;5.33;;;2.77;;
27622;SDS011;15041;45.334;5.622;2024-03-06T05:54:42;2.77;;;2.10;;
27622;SDS011;15041;45.334;5.622;2024-03-06T05:57:09;4.00;;;3.07;;
27622;SDS011;15041;45.334;5.622;2024-03-06T05:59:36;3.87;;;3.30;;
27622;SDS011;15041;45.334;5.622;2024-03-06T06:02:05;4.00;;;3.40;;
27622;SDS011;15041;45.334;5.622;2024-03-06T06:04:34;3.67;;;3.23;;
27622;SDS011;15041;45.334;5.622;2024-03-06T06:07:01;3.47;;;2.47;;
27622;SDS011;15041;45.334;5.622;2024-03-06T06:09:28;2.43;;;2.23;;
27622;SDS011;15041;45.334;5.622;2024-03-06T06:11:55;5.70;;;2.90;;
27622;SDS011;15041;45.334;5.622;2024-03-06T06:14:22;3.43;;;2.90;;
27622;SDS011;15041;45.334;5.622;2024-03-06T06:16:52;4.77;;;3.17;;
27622;SDS011;15041;45.334;5.622;2024-03-06T06:19:19;7.83;;;4.83;;
27622;SDS011;15041;45.334;5.622;2024-03-06T06:21:47;6.17;;;4.57;;
27622;SDS011;15041;45.334;5.622;2024-03-06T06:24:14;9.43;;;5.37;;
27622;SDS011;15041;45.334;5.622;2024-03-06T06:26:41;9.07;;;4.43;;
27622;SDS011;15041;45.334;5.622;2024-03-06T06:29:09;7.90;;;3.90;;
27622;SDS011;15041;45.334;5.622;2024-03-06T06:31:36;4.40;;;3.33;;
27622;SDS011;15041;45.334;5.622;2024-03-06T06:34:03;2.53;;;2.33;;
27622;SDS011;15041;45.334;5.622;2024-03-06T06:36:31;8.83;;;7.97;;
27622;SDS011;15041;45.334;5.622;2024-03-06T06:39:00;3.80;;;3.30;;
27622;SDS011;15041;45.334;5.622;2024-03-06T06:41:31;3.60;;;3.03;;
27622;SDS011;15041;45.334;5.622;2024-03-06T06:43:58;6.33;;;4.80;;
27622;SDS011;15041;45.334;5.622;2024-03-06T06:46:25;7.40;;;5.13;;
27622;SDS011;15041;45.334;5.622;2024-03-06T06:48:52;6.47;;;5.30;;
27622;SDS011;15041;45.334;5.622;2024-03-06T06:51:19;8.27;;;5.10;;
27622;SDS011;15041;45.334;5.622;2024-03-06T06:53:46;6.93;;;4.73;;
27622;SDS011;15041;45.334;5.622;2024-03-06T06:56:15;5.60;;;4.23;;
27622;SDS011;15041;45.334;5.622;2024-03-06T06:58:42;5.60;;;4.10;;
27622;SDS011;15041;45.334;5.622;2024-03-06T07:01:09;7.03;;;3.70;;
27622;SDS011;15041;45.334;5.622;2024-03-06T07:03:36;4.43;;;3.23;;
27622;SDS011;15041;45.334;5.622;2024-03-06T07:06:03;4.20;;;3.30;;
27622;SDS011;15041;45.334;5.622;2024-03-06T07:08:31;3.13;;;2.90;;
27622;SDS011;15041;45.334;5.622;2024-03-06T07:10:58;2.90;;;2.70;;
27622;SDS011;15041;45.334;5.622;2024-03-06T07:13:27;2.67;;;2.47;;
27622;SDS011;15041;45.334;5.622;2024-03-06T07:15:54;2.73;;;2.53;;
27622;SDS011;15041;45.334;5.622;2024-03-06T07:18:21;3.13;;;2.83;;
27622;SDS011;15041;45.334;5.622;2024-03-06T07:20:48;3.10;;;2.83;;
27622;SDS011;15041;45.334;5.622;2024-03-06T07:23:15;5.87;;;3.27;;
27622;SDS011;15041;45.334;5.622;2024-03-06T07:25:42;5.07;;;3.67;;
27622;SDS011;15041;45.334;5.622;2024-03-06T07:28:09;4.33;;;3.17;;
27622;SDS011;15041;45.334;5.622;2024-03-06T07:30:38;9.43;;;3.07;;
27622;SDS011;15041;45.334;5.622;2024-03-06T07:33:05;6.30;;;3.60;;
27622;SDS011;15041;45.334;5.622;2024-03-06T07:35:32;4.90;;;3.37;;
27622;SDS011;15041;45.334;5.622;2024-03-06T07:38:01;3.87;;;3.57;;
27622;SDS011;15041;45.334;5.622;2024-03-06T07:40:30;8.23;;;3.60;;
27622;SDS011;15041;45.334;5.622;2024-03-06T07:42:57;4.37;;;3.10;;
27622;SDS011;15041;45.334;5.622;2024-03-06T07:45:25;4.40;;;3.83;;
27622;SDS011;15041;45.334;5.622;2024-03-06T07:47:53;4.43;;;3.87;;
27622;SDS011;15041;45.334;5.622;2024-03-06T07:50:20;5.23;;;3.67;;
27622;SDS011;15041;45.334;5.622;2024-03-06T07:52:48;4.03;;;3.60;;
27622;SDS011;15041;45.334;5.622;2024-03-06T07:55:15;11.13;;;3.87;;
27622;SDS011;15041;45.334;5.622;2024-03-06T07:57:44;5.67;;;5.07;;
27622;SDS011;15041;45.334;5.622;2024-03-06T08:00:11;7.17;;;4.53;;
27622;SDS011;15041;45.334;5.622;2024-03-06T08:02:43;5.53;;;4.30;;
27622;SDS011;15041;45.334;5.622;2024-03-06T08:05:16;3.97;;;3.67;;
27622;SDS011;15041;45.334;5.622;2024-03-06T08:07:43;4.87;;;4.37;;
27622;SDS011;15041;45.334;5.622;2024-03-06T08:10:12;5.47;;;4.30;;
27622;SDS011;15041;45.334;5.622;2024-03-06T08:12:40;6.53;;;4.17;;
27622;SDS011;15041;45.334;5.622;2024-03-06T08:15:08;5.83;;;4.27;;
27622;SDS011;15041;45.334;5.622;2024-03-06T08:17:38;7.30;;;4.40;;
27622;SDS011;15041;45.334;5.622;2024-03-06T08:20:07;7.47;;;4.77;;
27622;SDS011;15041;45.334;5.622;2024-03-06T08:22:37;6.17;;;4.40;;
27622;SDS011;15041;45.334;5.622;2024-03-06T08:25:05;5.97;;;4.70;;
27622;SDS011;15041;45.334;5.622;2024-03-06T08:27:34;5.50;;;4.83;;
27622;SDS011;15041;45.334;5.622;2024-03-06T08:30:03;5.27;;;4.77;;
27622;SDS011;15041;45.334;5.622;2024-03-06T08:32:30;5.27;;;4.63;;
27622;SDS011;15041;45.334;5.622;2024-03-06T08:34:58;5.90;;;5.03;;
27622;SDS011;15041;45.334;5.622;2024-03-06T08:37:25;5.60;;;4.70;;
27622;SDS011;15041;45.334;5.622;2024-03-06T08:39:54;11.70;;;4.73;;
27622;SDS011;15041;45.334;5.622;2024-03-06T08:42:21;6.83;;;5.10;;
27622;SDS011;15041;45.334;5.622;2024-03-06T08:44:48;5.87;;;5.23;;
27622;SDS011;15041;45.334;5.622;2024-03-06T08:47:16;6.07;;;5.03;;
27622;SDS011;15041;45.334;5.622;2024-03-06T08:49:43;7.17;;;5.20;;
27622;SDS011;15041;45.334;5.622;2024-03-06T08:52:10;6.50;;;5.00;;
27622;SDS011;15041;45.334;5.622;2024-03-06T08:54:37;5.50;;;4.63;;
27622;SDS011;15041;45.334;5.622;2024-03-06T08:57:08;5.60;;;5.00;;
27622;SDS011;15041;45.334;5.622;2024-03-06T08:59:37;6.30;;;5.57;;
27622;SDS011;15041;45.334;5.622;2024-03-06T09:02:13;5.73;;;5.23;;
27622;SDS011;15041;45.334;5.622;2024-03-06T09:04:41;8.23;;;5.90;;
27622;SDS011;15041;45.334;5.622;2024-03-06T09:07:08;5.23;;;4.73;;
27622;SDS011;15041;45.334;5.622;2024-03-06T09:09:35;7.30;;;4.63;;
27622;SDS011;15041;45.334;5.622;2024-03-06T09:12:02;6.53;;;4.57;;
27622;SDS011;15041;45.334;5.622;2024-03-06T09:14:32;6.37;;;4.23;;
27622;SDS011;15041;45.334;5.622;2024-03-06T09:17:00;7.73;;;4.33;;
27622;SDS011;15041;45.334;5.622;2024-03-06T09:19:27;6.43;;;4.40;;
27622;SDS011;15041;45.334;5.622;2024-03-06T09:21:55;4.13;;;3.73;;
27622;SDS011;15041;45.334;5.622;2024-03-06T09:24:22;7.00;;;4.37;;
27622;SDS011;15041;45.334;5.622;2024-03-06T09:26:51;8.47;;;4.67;;
27622;SDS011;15041;45.334;5.622;2024-03-06T09:29:18;8.30;;;4.07;;
27622;SDS011;15041;45.334;5.622;2024-03-06T09:31:47;4.20;;;3.80;;
27622;SDS011;15041;45.334;5.622;2024-03-06T09:34:14;6.20;;;4.00;;
27622;SDS011;15041;45.334;5.622;2024-03-06T09:36:45;8.53;;;3.90;;
27622;SDS011;15041;45.334;5.622;2024-03-06T09:39:13;4.20;;;3.80;;
27622;SDS011;15041;45.334;5.622;2024-03-06T09:41:42;5.63;;;3.60;;
27622;SDS011;15041;45.334;5.622;2024-03-06T09:44:10;5.37;;;4.20;;
27622;SDS011;15041;45.334;5.622;2024-03-06T09:46:39;4.60;;;3.70;;
27622;SDS011;15041;45.334;5.622;2024-03-06T09:49:11;5.07;;;3.33;;
27622;SDS011;15041;45.334;5.622;2024-03-06T09:51:41;4.03;;;3.20;;
27622;SDS011;15041;45.334;5.622;2024-03-06T09:54:11;5.38;;;3.50;;
27622;SDS011;15041;45.334;5.622;2024-03-06T09:56:40;6.33;;;3.60;;
27622;SDS011;15041;45.334;5.622;2024-03-06T09:59:10;7.10;;;3.70;;
27622;SDS011;15041;45.334;5.622;2024-03-06T10:01:39;7.97;;;3.70;;
27622;SDS011;15041;45.334;5.622;2024-03-06T10:04:18;5.37;;;3.77;;
27622;SDS011;15041;45.334;5.622;2024-03-06T10:06:46;7.90;;;3.30;;
27622;SDS011;15041;45.334;5.622;2024-03-06T10:09:16;5.28;;;3.42;;
27622;SDS011;15041;45.334;5.622;2024-03-06T10:11:44;4.90;;;3.08;;
27622;SDS011;15041;45.334;5.622;2024-03-06T10:14:11;5.88;;;3.28;;
27622;SDS011;15041;45.334;5.622;2024-03-06T10:16:51;3.70;;;3.40;;
27622;SDS011;15041;45.334;5.622;2024-03-06T10:19:20;5.55;;;2.70;;
27622;SDS011;15041;45.334;5.622;2024-03-06T10:21:48;3.85;;;3.45;;
27622;SDS011;15041;45.334;5.622;2024-03-06T10:24:17;5.18;;;3.70;;
27622;SDS011;15041;45.334;5.622;2024-03-06T10:26:46;3.55;;;2.95;;
27622;SDS011;15041;45.334;5.622;2024-03-06T10:29:15;3.20;;;2.70;;
27622;SDS011;15041;45.334;5.622;2024-03-06T10:31:47;3.50;;;2.80;;
27622;SDS011;15041;45.334;5.622;2024-03-06T10:34:17;5.75;;;2.85;;
27622;SDS011;15041;45.334;5.622;2024-03-06T10:36:47;12.77;;;5.32;;
27622;SDS011;15041;45.334;5.622;2024-03-06T10:39:21;3.03;;;2.28;;
27622;SDS011;15041;45.334;5.622;2024-03-06T10:41:51;3.70;;;1.92;;
27622;SDS011;15041;45.334;5.622;2024-03-06T10:44:21;1.70;;;1.60;;
27622;SDS011;15041;45.334;5.622;2024-03-06T10:46:51;2.00;;;1.85;;
27622;SDS011;15041;45.334;5.622;2024-03-06T10:49:24;10.27;;;2.28;;
27622;SDS011;15041;45.334;5.622;2024-03-06T10:51:54;3.22;;;1.92;;
27622;SDS011;15041;45.334;5.622;2024-03-06T10:54:26;1.75;;;1.65;;
27622;SDS011;15041;45.334;5.622;2024-03-06T10:56:54;1.75;;;1.65;;
27622;SDS011;15041;45.334;5.622;2024-03-06T10:59:22;1.98;;;1.50;;
27622;SDS011;15041;45.334;5.622;2024-03-06T11:01:53;3.88;;;2.90;;
27622;SDS011;15041;45.334;5.622;2024-03-06T11:04:24;1.05;;;1.05;;
27622;SDS011;15041;45.334;5.622;2024-03-06T11:06:53;3.20;;;1.42;;
27622;SDS011;15041;45.334;5.622;2024-03-06T11:09:21;1.80;;;1.50;;
27622;SDS011;15041;45.334;5.622;2024-03-06T11:11:49;1.42;;;1.30;;
27622;SDS011;15041;45.334;5.622;2024-03-06T11:14:17;8.32;;;2.47;;
27622;SDS011;15041;45.334;5.622;2024-03-06T11:17:03;2.72;;;1.40;;
27622;SDS011;15041;45.334;5.622;2024-03-06T11:28:31;1.25;;;1.20;;
27622;SDS011;15041;45.334;5.622;2024-03-06T11:31:00;5.65;;;1.67;;
27622;SDS011;15041;45.334;5.622;2024-03-06T11:33:34;1.20;;;1.20;;
27622;SDS011;15041;45.334;5.622;2024-03-06T11:36:17;1.48;;;1.27;;
27622;SDS011;15041;45.334;5.622;2024-03-06T11:38:52;1.60;;;1.50;;
27622;SDS011;15041;45.334;5.622;2024-03-06T11:41:20;1.40;;;1.30;;
27622;SDS011;15041;45.334;5.622;2024-03-06T11:43:48;2.37;;;1.20;;
27622;SDS011;15041;45.334;5.622;2024-03-06T11:46:18;2.20;;;2.00;;
27622;SDS011;15041;45.334;5.622;2024-03-06T11:48:53;3.07;;;2.40;;
27622;SDS011;15041;45.334;5.622;2024-03-06T11:51:22;1.50;;;1.40;;
27622;SDS011;15041;45.334;5.622;2024-03-06T11:53:50;1.33;;;1.23;;
27622;SDS011;15041;45.334;5.622;2024-03-06T11:56:17;3.20;;;2.00;;
27622;SDS011;15041;45.334;5.622;2024-03-06T11:58:45;2.07;;;1.50;;
27622;SDS011;15041;45.334;5.622;2024-03-06T12:01:13;1.17;;;1.17;;
27622;SDS011;15041;45.334;5.622;2024-03-06T12:03:41;1.80;;;1.70;;
27622;SDS011;15041;45.334;5.622;2024-03-06T12:06:09;1.60;;;1.50;;
27622;SDS011;15041;45.334;5.622;2024-03-06T12:08:39;1.83;;;1.40;;
27622;SDS011;15041;45.334;5.622;2024-03-06T12:11:06;1.90;;;1.80;;
27622;SDS011;15041;45.334;5.622;2024-03-06T12:13:33;1.63;;;1.53;;
27622;SDS011;15041;45.334;5.622;2024-03-06T12:16:05;2.27;;;1.50;;
27622;SDS011;15041;45.334;5.622;2024-03-06T12:18:33;1.60;;;1.50;;
27622;SDS011;15041;45.334;5.622;2024-03-06T12:21:01;1.53;;;1.30;;
27622;SDS011;15041;45.334;5.622;2024-03-06T12:23:29;2.13;;;2.03;;
27622;SDS011;15041;45.334;5.622;2024-03-06T12:26:04;1.73;;;1.63;;
27622;SDS011;15041;45.334;5.622;2024-03-06T12:28:32;1.83;;;1.20;;
27622;SDS011;15041;45.334;5.622;2024-03-06T12:31:01;2.27;;;1.63;;
27622;SDS011;15041;45.334;5.622;2024-03-06T12:33:29;4.93;;;1.80;;
27622;SDS011;15041;45.334;5.622;2024-03-06T12:36:03;5.07;;;2.73;;
27622;SDS011;15041;45.334;5.622;2024-03-06T12:38:31;1.43;;;1.40;;
27622;SDS011;15041;45.334;5.622;2024-03-06T12:40:59;3.33;;;2.37;;
27622;SDS011;15041;45.334;5.622;2024-03-06T12:43:28;2.80;;;1.73;;
27622;SDS011;15041;45.334;5.622;2024-03-06T12:45:55;1.97;;;1.50;;
27622;SDS011;15041;45.334;5.622;2024-03-06T12:48:23;1.77;;;1.50;;
27622;SDS011;15041;45.334;5.622;2024-03-06T12:50:51;1.43;;;1.33;;
27622;SDS011;15041;45.334;5.622;2024-03-06T12:53:19;1.30;;;1.20;;
27622;SDS011;15041;45.334;5.622;2024-03-06T12:55:47;1.73;;;1.37;;
27622;SDS011;15041;45.334;5.622;2024-03-06T12:58:14;1.47;;;1.33;;
27622;SDS011;15041;45.334;5.622;2024-03-06T13:00:42;2.47;;;1.30;;
27622;SDS011;15041;45.334;5.622;2024-03-06T13:03:10;1.53;;;1.43;;
27622;SDS011;15041;45.334;5.622;2024-03-06T13:05:38;2.13;;;1.33;;
27622;SDS011;15041;45.334;5.622;2024-03-06T13:08:05;2.93;;;1.73;;
27622;SDS011;15041;45.334;5.622;2024-03-06T13:10:32;2.07;;;1.57;;
27622;SDS011;15041;45.334;5.622;2024-03-06T13:13:01;3.23;;;1.23;;
27622;SDS011;15041;45.334;5.622;2024-03-06T13:15:28;1.07;;;1.03;;
27622;SDS011;15041;45.334;5.622;2024-03-06T13:17:56;1.97;;;1.60;;
27622;SDS011;15041;45.334;5.622;2024-03-06T13:20:23;2.90;;;1.40;;
27622;SDS011;15041;45.334;5.622;2024-03-06T13:22:52;1.20;;;1.03;;
27622;SDS011;15041;45.334;5.622;2024-03-06T13:25:20;3.27;;;1.40;;
27622;SDS011;15041;45.334;5.622;2024-03-06T13:27:47;5.80;;;1.40;;
27622;SDS011;15041;45.334;5.622;2024-03-06T13:30:14;2.70;;;1.30;;
27622;SDS011;15041;45.334;5.622;2024-03-06T13:32:41;1.70;;;1.20;;
27622;SDS011;15041;45.334;5.622;2024-03-06T13:35:12;1.07;;;1.03;;
27622;SDS011;15041;45.334;5.622;2024-03-06T13:37:39;2.90;;;1.30;;
27622;SDS011;15041;45.334;5.622;2024-03-06T13:40:06;1.53;;;1.07;;
27622;SDS011;15041;45.334;5.622;2024-03-06T13:42:35;1.20;;;1.07;;
27622;SDS011;15041;45.334;5.622;2024-03-06T13:45:03;1.90;;;1.30;;
27622;SDS011;15041;45.334;5.622;2024-03-06T13:47:35;3.60;;;1.30;;
27622;SDS011;15041;45.334;5.622;2024-03-06T13:50:02;3.47;;;1.33;;
27622;SDS011;15041;45.334;5.622;2024-03-06T13:52:33;2.20;;;1.67;;
27622;SDS011;15041;45.334;5.622;2024-03-06T13:55:00;1.90;;;1.50;;
27622;SDS011;15041;45.334;5.622;2024-03-06T13:57:30;4.83;;;1.63;;
27622;SDS011;15041;45.334;5.622;2024-03-06T13:59:58;1.47;;;1.30;;
27622;SDS011;15041;45.334;5.622;2024-03-06T14:02:26;4.53;;;1.53;;
27622;SDS011;15041;45.334;5.622;2024-03-06T14:04:53;1.50;;;1.40;;
27622;SDS011;15041;45.334;5.622;2024-03-06T14:07:20;2.07;;;1.50;;
27622;SDS011;15041;45.334;5.622;2024-03-06T14:09:50;2.47;;;1.63;;
27622;SDS011;15041;45.334;5.622;2024-03-06T14:12:17;1.73;;;1.30;;
27622;SDS011;15041;45.334;5.622;2024-03-06T14:14:44;1.63;;;1.20;;
27622;SDS011;15041;45.334;5.622;2024-03-06T14:17:11;5.10;;;3.27;;
27622;SDS011;15041;45.334;5.622;2024-03-06T14:19:38;2.70;;;2.30;;
27622;SDS011;15041;45.334;5.622;2024-03-06T14:22:06;4.50;;;2.60;;
27622;SDS011;15041;45.334;5.622;2024-03-06T14:24:34;3.90;;;2.80;;
27622;SDS011;15041;45.334;5.622;2024-03-06T14:27:03;3.03;;;2.00;;
27622;SDS011;15041;45.334;5.622;2024-03-06T14:29:31;2.00;;;1.80;;
27622;SDS011;15041;45.334;5.622;2024-03-06T14:31:58;5.00;;;1.77;;
27622;SDS011;15041;45.334;5.622;2024-03-06T14:34:25;6.07;;;1.90;;
27622;SDS011;15041;45.334;5.622;2024-03-06T14:36:52;1.97;;;1.73;;
27622;SDS011;15041;45.334;5.622;2024-03-06T14:39:19;2.40;;;1.87;;
27622;SDS011;15041;45.334;5.622;2024-03-06T14:41:48;5.63;;;2.27;;
27622;SDS011;15041;45.334;5.622;2024-03-06T14:44:16;2.90;;;1.70;;
27622;SDS011;15041;45.334;5.622;2024-03-06T14:46:43;2.03;;;1.70;;
27622;SDS011;15041;45.334;5.622;2024-03-06T14:49:10;1.87;;;1.70;;
27622;SDS011;15041;45.334;5.622;2024-03-06T14:51:37;1.63;;;1.53;;
27622;SDS011;15041;45.334;5.622;2024-03-06T14:54:04;2.07;;;1.53;;
27622;SDS011;15041;45.334;5.622;2024-03-06T14:56:31;4.30;;;2.20;;
27622;SDS011;15041;45.334;5.622;2024-03-06T14:58:58;1.80;;;1.67;;
27622;SDS011;15041;45.334;5.622;2024-03-06T15:01:27;1.93;;;1.80;;